Crane, MT

10:18 PM MDT on August 29, 2014 (GMT -0600)
Sidney-Richland Municipal | Change Station
CLOSE
Current Station
Airport
Location: Sidney-Richland,
Elevation: 1985 ft
Nearby Weather Stations

Elev 1985 ft 47.71 °N, 104.19 °W | Updated 3 minutes ago

Clear
Clear
54 °F
Feels Like 54 °F
N
0
Wind Variable Wind from North

Today
High -- | Low -- °F
--% Chance of Precip.
Yesterday
High -- | Low -- °F
Precip. -- in
6:11 AM 7:43 PM
Waxing Crescent, 19% visible
Pressure 29.97 in
Visibility 10.0 miles
Clouds Clear
Dew Point 50 °F
Humidity 88%
Rainfall 0.24 in
Snow Depth Not available.
UV 0 out of 12
Pollen 9.40 out of 12
Air Quality Not available.
Flu Activity Not available.
METAR KSDY 300415Z AUTO 00000KT 10SM CLR 12/10 A2997 RMK AO1

More Conditions Fewer Conditions

Pressure 29.97 in
Visibility 10.0 miles
Clouds Clear
Dew Point 50 °F
Humidity 88%
Rainfall 0.24 in
Snow Depth Not available.
UV 0 out of 12
Pollen 9.40 out of 12
Air Quality Not available.
Flu Activity Not available.
METAR KSDY 300415Z AUTO 00000KT 10SM CLR 12/10 A2997 RMK AO1

More Conditions Fewer Conditions

10-Day Weather Forecast

Almanac

Astronomy

Aug. 29, 2014 Rise Set
Actual Time 6:11 AM MDT 7:43 PM MDT
Civil Twilight 5:38 AM MDT 8:15 PM MDT
Nautical Twilight 4:59 AM MDT 8:54 PM MDT
Astronomical Twilight 4:16 AM MDT 9:36 PM MDT
Moon 10:22 AM MDT (8/29) 9:21 PM MDT (8/29)
Length of Visible Light 14h 36m
Length of Day
13h 31m
Tomorrow will be 3m 19s shorter.
Waxing Crescent, 19% of the Moon is Illuminated
Aug 30
Waxing Crescent
Sep 2
First Quarter
Sep 8
Full
Sep 15
Last Quarter
Sep 24
New

Today's Extremes

State Highs State Lows

Community

WunderPhotos

Upload Photos

1,748,448 photos uploaded!

Nearby

Snow Depth

Station Depth Elevation
Crystal Lake 0 in 6050 ft
Cole Creek 0 in 7850 ft
Spur Park 0 in 8100 ft
Porcupine 0 in 6500 ft
Onion Park 0 in 7410 ft

Earthquake Activity

City Distance Mag. Time & Date
No recent earthquake activity has been reported nearby.
Minimum magnitude displayed is 2.5.

Coastal Water Temperatures

Place Temperature
No Stations Reporting

Nearby Weather Stations